Time;durP1;ratioP1;P1;durP2;ratioP2;P2;SDS_P1;SDS_P2;PMS_P1;PMS_P2;Temp;Humidity;BMP_temperature;BMP_pressure;BME280_temperature;BME280_humidity;BME280_pressure;Samples;Min_cycle;Max_cycle;Signal;HPM_P1;HPM_P2
2021/12/11 00:01:47;;;;;;;42.45;19.20;;;;;;;1.93;95.06;99380.09;4437085;32;20097;-69
2021/12/11 00:04:28;;;;;;;46.10;21.30;;;;;;;1.91;95.30;99387.03;4437172;32;20081;-69
2021/12/11 00:06:57;;;;;;;43.33;20.23;;;;;;;1.95;94.99;99388.78;4437175;32;20123;-69
2021/12/11 00:09:35;;;;;;;41.47;19.98;;;;;;;1.88;95.42;99403.47;4436891;31;20457;-69
2021/12/11 00:12:09;;;;;;;40.70;19.17;;;;;;;1.79;96.05;99405.97;4436851;32;20093;-69
2021/12/11 00:14:39;;;;;;;35.63;17.08;;;;;;;1.90;95.71;99409.50;4436977;32;20100;-69
2021/12/11 00:17:07;;;;;;;41.10;18.58;;;;;;;1.89;95.22;99406.94;4436867;32;20097;-69
2021/12/11 00:19:37;;;;;;;42.72;19.98;;;;;;;1.86;95.69;99407.75;4437044;32;20090;-69
2021/12/11 00:22:12;;;;;;;44.80;20.05;;;;;;;1.82;95.66;99416.41;4436834;32;20209;-69
2021/12/11 00:24:40;;;;;;;38.22;17.65;;;;;;;1.74;96.25;99420.66;4436853;32;20131;-69
2021/12/11 00:27:19;;;;;;;41.22;19.33;;;;;;;1.73;96.27;99426.69;4436731;32;20486;-69
2021/12/11 00:29:47;;;;;;;35.65;18.00;;;;;;;1.74;96.25;99423.25;4436738;32;20105;-69
2021/12/11 00:32:25;;;;;;;48.47;19.67;;;;;;;1.75;96.20;99427.59;4436931;32;20165;-69
2021/12/11 00:34:57;;;;;;;38.53;18.90;;;;;;;1.75;96.18;99430.19;4436960;32;20744;-69
2021/12/11 00:37:26;;;;;;;40.08;17.80;;;;;;;1.75;96.39;99435.38;4436864;32;20120;-69
2021/12/11 00:39:59;;;;;;;43.55;19.60;;;;;;;1.80;95.86;99457.09;4436585;32;20097;-69
2021/12/11 00:42:33;;;;;;;40.83;17.62;;;;;;;1.68;96.39;99456.97;4436578;32;20172;-69
2021/12/11 00:45:16;;;;;;;40.88;18.42;;;;;;;1.60;97.39;99458.63;4436660;32;20155;-69
2021/12/11 00:47:50;;;;;;;40.95;18.58;;;;;;;1.82;96.20;99465.75;4436661;32;20497;-69
2021/12/11 00:50:22;;;;;;;35.92;17.42;;;;;;;1.85;95.84;99470.09;4436663;32;20124;-69
2021/12/11 00:52:59;;;;;;;33.30;17.62;;;;;;;1.82;95.86;99481.31;4436526;32;20448;-69
2021/12/11 00:55:34;;;;;;;39.10;16.87;;;;;;;1.82;96.13;99483.06;4436677;32;20077;-69
2021/12/11 00:58:16;;;;;;;39.95;17.90;;;;;;;1.90;95.90;99486.59;4436560;32;20107;-69
2021/12/11 01:00:49;;;;;;;39.30;17.58;;;;;;;1.92;95.99;99485.75;4436755;32;20081;-69
2021/12/11 01:03:22;;;;;;;42.40;17.92;;;;;;;1.96;95.85;99485.78;4436333;32;20097;-69
2021/12/11 01:05:53;;;;;;;37.53;16.77;;;;;;;1.92;95.87;99485.75;4436433;32;20073;-69
2021/12/11 01:08:32;;;;;;;33.45;17.17;;;;;;;2.00;95.24;99488.41;4436521;32;20084;-69
2021/12/11 01:11:31;;;;;;;35.10;18.02;;;;;;;1.96;95.41;99490.97;4436607;32;20081;-69
2021/12/11 01:14:14;;;;;;;39.00;16.23;;;;;;;2.05;95.12;99486.72;4428271;32;20536;-69
2021/12/11 01:16:48;;;;;;;41.53;18.42;;;;;;;2.01;95.08;99489.28;4436382;32;20077;-69
2021/12/11 01:19:18;;;;;;;38.75;17.27;;;;;;;2.04;95.01;99482.37;4436399;32;20080;-69
2021/12/11 01:21:59;;;;;;;35.17;16.52;;;;;;;2.02;95.08;99483.25;4436224;32;20085;-69
2021/12/11 01:24:43;;;;;;;35.45;17.73;;;;;;;2.01;95.03;99484.94;4435805;32;20109;-69
2021/12/11 01:27:18;;;;;;;36.80;17.48;;;;;;;1.81;96.18;99487.38;4436201;32;20350;-69
2021/12/11 01:29:48;;;;;;;37.83;16.27;;;;;;;1.81;96.49;99492.59;4436303;32;20081;-69
2021/12/11 01:32:16;;;;;;;38.70;18.12;;;;;;;1.88;95.66;99496.97;4436211;31;20105;-69
2021/12/11 01:34:44;;;;;;;39.95;17.75;;;;;;;1.85;96.03;99490.87;4436402;31;20131;-69
2021/12/11 01:37:14;;;;;;;40.83;18.40;;;;;;;1.92;95.76;99495.28;4436163;31;20425;-69
2021/12/11 01:39:41;;;;;;;40.90;17.85;;;;;;;1.85;96.12;99503.88;4436057;32;20085;-69
2021/12/11 01:42:14;;;;;;;36.55;16.60;;;;;;;1.87;96.41;99503.03;4435990;31;20566;-69
2021/12/11 01:44:43;;;;;;;42.20;17.50;;;;;;;1.95;96.05;99515.22;4436461;32;20168;-69
2021/12/11 01:47:13;;;;;;;37.10;16.67;;;;;;;1.89;96.44;99503.91;4436013;32;20463;-69
2021/12/11 01:49:44;;;;;;;33.88;15.75;;;;;;;2.03;95.74;99518.75;4436093;32;20450;-69
2021/12/11 01:52:18;;;;;;;39.35;16.95;;;;;;;2.13;94.81;99515.38;4435992;32;20496;-69
2021/12/11 01:54:47;;;;;;;36.08;15.63;;;;;;;2.23;94.39;99512.00;4436054;32;20081;-69
2021/12/11 01:57:23;;;;;;;39.05;16.37;;;;;;;2.18;94.35;99516.25;4436136;32;20479;-69
2021/12/11 02:00:10;;;;;;;39.72;17.27;;;;;;;2.07;95.13;99505.78;4435968;32;20108;-69
2021/12/11 02:02:46;;;;;;;33.15;15.48;;;;;;;2.15;94.91;99505.84;4435749;32;20513;-69
2021/12/11 02:05:20;;;;;;;31.80;15.57;;;;;;;2.37;93.77;99499.97;4435938;32;20160;-69
2021/12/11 02:07:51;;;;;;;37.13;16.30;;;;;;;2.29;93.88;99506.81;4435831;32;20107;-69
2021/12/11 02:10:33;;;;;;;41.17;18.37;;;;;;;2.33;93.93;99495.59;4436001;32;20793;-69
2021/12/11 02:13:05;;;;;;;43.75;18.12;;;;;;;2.30;94.05;99492.13;4435838;32;20077;-69
2021/12/11 02:15:42;;;;;;;34.72;16.98;;;;;;;2.28;94.16;99479.09;4435839;32;20115;-69
2021/12/11 02:18:17;;;;;;;45.67;18.77;;;;;;;2.27;93.94;99484.28;4435581;31;20516;-69
2021/12/11 02:20:51;;;;;;;40.53;17.50;;;;;;;2.22;94.40;99486.84;4435716;32;20072;-69
2021/12/11 02:23:19;;;;;;;39.70;18.02;;;;;;;2.26;94.40;99480.81;4435655;32;20105;-69
2021/12/11 02:25:50;;;;;;;46.33;16.95;;;;;;;2.15;94.83;99475.53;4435719;32;20185;-69
2021/12/11 02:28:37;;;;;;;38.53;18.20;;;;;;;2.11;95.14;99476.34;4435551;32;20503;-69
2021/12/11 02:31:07;;;;;;;40.88;18.58;;;;;;;1.98;96.01;99481.44;4435534;32;20115;-69
2021/12/11 02:33:46;;;;;;;43.80;18.30;;;;;;;2.05;95.81;99483.22;4435624;32;20101;-69
2021/12/11 02:36:13;;;;;;;36.67;17.73;;;;;;;2.03;95.85;99482.37;4438224;32;20156;-69
2021/12/11 02:38:59;;;;;;;39.15;17.48;;;;;;;2.09;95.38;99477.22;4437817;32;20107;-69
2021/12/11 02:41:51;;;;;;;45.33;17.42;;;;;;;2.07;95.35;99463.34;4438064;32;20430;-69
2021/12/11 02:44:29;;;;;;;37.80;15.60;;;;;;;2.10;95.24;99476.38;4437705;32;20496;-69
2021/12/11 02:47:09;;;;;;;35.90;16.00;;;;;;;2.09;95.12;99488.50;4437987;32;20594;-69
2021/12/11 02:49:45;;;;;;;36.38;17.20;;;;;;;1.94;95.67;99474.50;4437857;32;20511;-69
2021/12/11 02:52:13;;;;;;;39.78;16.42;;;;;;;1.99;95.87;99481.47;4437722;32;20140;-69
2021/12/11 02:54:48;;;;;;;35.70;16.50;;;;;;;1.91;96.12;99473.63;4437884;31;20097;-69
2021/12/11 02:57:33;;;;;;;39.60;17.35;;;;;;;1.91;96.31;99467.56;4437644;32;20538;-69
2021/12/11 03:00:37;;;;;;;38.13;17.27;;;;;;;1.91;96.42;99460.63;4437665;32;20076;-69
2021/12/11 03:03:07;;;;;;;35.40;15.90;;;;;;;1.79;96.92;99447.53;4437392;31;20124;-69
2021/12/11 03:05:45;;;;;;;34.95;15.73;;;;;;;1.69;97.65;99461.28;4437580;32;20120;-69
2021/12/11 03:08:17;;;;;;;35.92;15.45;;;;;;;1.78;97.11;99460.53;4437610;32;20126;-69
2021/12/11 03:10:51;;;;;;;37.83;15.63;;;;;;;1.83;96.73;99467.47;4437720;32;20099;-69
2021/12/11 03:13:19;;;;;;;37.25;16.08;;;;;;;2.01;95.80;99481.47;4437563;32;20131;-69
2021/12/11 03:15:46;;;;;;;35.42;15.52;;;;;;;1.77;96.76;99490.81;4437474;31;20416;-69
2021/12/11 03:18:16;;;;;;;39.92;17.35;;;;;;;1.83;96.83;99490.84;4437224;32;20127;-69
2021/12/11 03:20:45;;;;;;;38.22;16.42;;;;;;;1.84;96.98;99503.00;4437598;32;20081;-69
2021/12/11 03:23:12;;;;;;;41.42;17.23;;;;;;;1.91;96.43;99506.53;4437296;31;20088;-69
2021/12/11 03:25:40;;;;;;;40.58;16.45;;;;;;;1.90;96.37;99512.56;4437372;31;20127;-69
2021/12/11 03:28:11;;;;;;;39.25;15.63;;;;;;;1.96;96.34;99516.94;4437319;32;20209;-69
2021/12/11 03:30:43;;;;;;;37.67;16.98;;;;;;;2.02;95.87;99522.22;4437427;32;20081;-69
2021/12/11 03:33:16;;;;;;;38.63;16.67;;;;;;;2.02;95.75;99527.41;4437437;32;20097;-69
2021/12/11 03:35:46;;;;;;;40.33;16.08;;;;;;;1.99;95.70;99541.22;4423105;32;20125;-69
2021/12/11 03:38:14;;;;;;;40.35;16.23;;;;;;;2.03;95.66;99549.94;4437472;32;20093;-69
2021/12/11 03:40:41;;;;;;;36.22;15.85;;;;;;;2.07;95.52;99554.28;4437222;32;20089;-69
2021/12/11 03:43:12;;;;;;;38.05;16.10;;;;;;;2.02;95.98;99556.00;4437156;31;20423;-69
2021/12/11 03:45:43;;;;;;;33.33;14.82;;;;;;;2.13;95.49;99551.75;4436643;32;20159;-69
2021/12/11 03:48:18;;;;;;;39.40;17.00;;;;;;;2.20;95.03;99553.53;4437345;32;20135;-69
2021/12/11 03:50:46;;;;;;;34.33;15.27;;;;;;;2.24;94.63;99555.31;4437416;32;20645;-69
2021/12/11 03:53:15;;;;;;;45.15;19.40;;;;;;;2.21;94.54;99550.06;4437060;32;20120;-69
2021/12/11 03:55:53;;;;;;;42.97;18.75;;;;;;;2.06;95.19;99542.16;4437220;31;20105;-69
2021/12/11 03:58:21;;;;;;;44.83;18.35;;;;;;;2.15;94.86;99535.28;4437339;32;20489;-69
2021/12/11 04:00:54;;;;;;;43.72;18.37;;;;;;;2.21;94.53;99531.88;4437074;31;20085;-69
2021/12/11 04:03:29;;;;;;;43.33;16.83;;;;;;;2.26;94.35;99537.13;4437230;32;20069;-69
2021/12/11 04:05:57;;;;;;;38.30;15.20;;;;;;;2.33;94.02;99528.50;4437112;32;20123;-69
2021/12/11 04:08:28;;;;;;;34.67;14.68;;;;;;;2.35;93.82;99529.41;4437001;31;20497;-69
2021/12/11 04:10:56;;;;;;;41.15;17.00;;;;;;;2.29;93.67;99535.41;4436985;32;20077;-69
2021/12/11 04:13:24;;;;;;;36.13;15.18;;;;;;;2.24;93.89;99529.31;4437068;32;20115;-69
2021/12/11 04:15:53;;;;;;;33.67;14.18;;;;;;;2.25;93.75;99541.44;4436873;32;20504;-69
2021/12/11 04:18:21;;;;;;;31.10;13.32;;;;;;;2.28;93.41;99538.88;4436884;31;20507;-69
2021/12/11 04:20:51;;;;;;;33.28;14.35;;;;;;;2.33;92.96;99536.28;4436800;32;20155;-69
2021/12/11 04:23:20;;;;;;;27.42;12.57;;;;;;;2.26;93.21;99548.41;4436827;32;20089;-69
2021/12/11 04:25:52;;;;;;;33.47;13.88;;;;;;;2.24;93.27;99551.84;4436880;32;20158;-70
2021/12/11 04:28:21;;;;;;;26.80;12.37;;;;;;;2.20;93.03;99560.47;4436781;32;20578;-69
2021/12/11 04:30:51;;;;;;;28.02;11.82;;;;;;;2.24;93.08;99563.09;4436798;31;20081;-69
2021/12/11 04:33:19;;;;;;;29.50;12.37;;;;;;;2.21;92.45;99570.00;4436727;32;20147;-69
2021/12/11 04:35:47;;;;;;;23.27;11.18;;;;;;;2.10;92.85;99567.31;4436658;32;20124;-69
2021/12/11 04:38:15;;;;;;;29.02;12.82;;;;;;;2.14;92.82;99563.88;4437005;31;20123;-69
2021/12/11 04:40:48;;;;;;;30.30;11.77;;;;;;;2.12;93.06;99562.97;4436638;32;20168;-69
2021/12/11 04:43:19;;;;;;;27.17;11.07;;;;;;;2.13;92.70;99564.75;4436621;32;20076;-69
2021/12/11 04:45:59;;;;;;;32.97;14.02;;;;;;;2.02;93.11;99575.03;4436617;32;20141;-69
2021/12/11 04:48:52;;;;;;;26.02;11.23;;;;;;;2.09;93.01;99575.97;4436748;32;20101;-69
2021/12/11 04:59:12;;;;;;;26.62;11.52;;;;;;;2.00;92.35;99563.75;4435440;32;20152;-69
2021/12/11 05:09:39;;;;;;;23.67;10.98;;;;;;;2.02;92.70;99582.84;4436418;32;20144;-69
2021/12/11 05:12:20;;;;;;;21.33;10.50;;;;;;;2.05;92.66;99590.66;4421390;32;20136;-69
2021/12/11 05:14:47;;;;;;;28.00;12.05;;;;;;;2.10;92.49;99593.31;4421977;32;20077;-69
2021/12/11 05:17:14;;;;;;;26.85;12.93;;;;;;;2.06;92.58;99592.41;4421708;32;20113;-69
2021/12/11 05:19:43;;;;;;;26.45;12.18;;;;;;;2.03;92.71;99591.50;4421994;32;20109;-69
2021/12/11 05:22:12;;;;;;;27.37;12.82;;;;;;;1.99;92.93;99598.38;4421831;32;20137;-69
2021/12/11 05:24:43;;;;;;;24.10;10.05;;;;;;;2.05;92.74;99589.75;4421909;32;20113;-69
2021/12/11 05:27:11;;;;;;;21.15;9.45;;;;;;;1.91;92.45;99594.84;4421956;32;20184;-69
2021/12/11 05:29:39;;;;;;;18.05;9.13;;;;;;;1.90;91.29;99599.16;4421871;32;20134;-69
2021/12/11 05:32:12;;;;;;;20.70;9.27;;;;;;;1.90;91.35;99600.88;4421876;32;20081;-69
2021/12/11 05:34:40;;;;;;;22.33;11.15;;;;;;;1.73;91.81;99597.22;4421769;32;20109;-69
2021/12/11 05:37:07;;;;;;;27.58;12.70;;;;;;;1.85;91.96;99597.37;4421786;32;20097;-69
2021/12/11 05:39:34;;;;;;;26.00;11.35;;;;;;;1.90;91.88;99603.47;4421839;32;20101;-69
2021/12/11 05:42:03;;;;;;;29.63;12.98;;;;;;;1.88;91.48;99607.81;4421787;32;20089;-69
2021/12/11 05:44:30;;;;;;;20.48;9.38;;;;;;;1.72;91.34;99603.28;4421615;32;20089;-69
2021/12/11 05:46:57;;;;;;;21.77;9.77;;;;;;;1.77;91.91;99605.09;4421755;32;20166;-69
2021/12/11 05:49:28;;;;;;;24.10;9.75;;;;;;;1.74;91.59;99610.25;4421724;32;20153;-69
2021/12/11 05:51:56;;;;;;;23.00;10.35;;;;;;;1.76;91.47;99620.63;4421670;32;20444;-69
2021/12/11 05:54:26;;;;;;;20.17;10.18;;;;;;;1.78;91.47;99630.19;4421858;32;20085;-69
2021/12/11 05:56:59;;;;;;;26.75;11.05;;;;;;;1.78;91.73;99631.94;4419042;32;20180;-71
2021/12/11 05:59:28;;;;;;;25.52;11.57;;;;;;;1.77;92.08;99638.84;4420926;32;20089;-70
2021/12/11 06:02:05;;;;;;;27.23;12.40;;;;;;;1.69;92.66;99645.66;4420842;32;20081;-70
2021/12/11 06:04:35;;;;;;;25.73;12.00;;;;;;;1.73;93.01;99647.44;4420889;32;20206;-70
2021/12/11 06:07:07;;;;;;;24.85;12.25;;;;;;;1.85;92.71;99655.41;4420481;32;20170;-70
2021/12/11 06:09:36;;;;;;;28.67;12.15;;;;;;;1.94;92.01;99666.72;4420010;32;20101;-70
2021/12/11 06:12:08;;;;;;;26.92;11.75;;;;;;;1.94;92.34;99680.59;4420528;32;20480;-70
2021/12/11 06:14:37;;;;;;;29.02;12.32;;;;;;;1.90;92.65;99697.88;4420598;32;20090;-70
2021/12/11 06:17:06;;;;;;;26.17;11.30;;;;;;;2.01;92.58;99702.31;4407308;31;511619;-70
2021/12/11 06:19:34;;;;;;;34.00;13.15;;;;;;;1.87;91.95;99712.53;4436086;32;20132;-70
2021/12/11 06:22:02;;;;;;;24.87;11.40;;;;;;;1.79;92.81;99715.06;4435731;32;20137;-70
2021/12/11 06:24:30;;;;;;;23.85;11.35;;;;;;;1.77;92.65;99708.97;4435489;32;20893;-70
2021/12/11 06:26:58;;;;;;;30.70;12.95;;;;;;;1.80;92.04;99719.41;4435699;32;20160;-70
2021/12/11 06:29:27;;;;;;;27.08;11.70;;;;;;;1.85;92.26;99728.13;4435956;32;20215;-70
2021/12/11 06:31:56;;;;;;;29.85;12.52;;;;;;;1.87;92.15;99733.31;4435463;32;20085;-70
2021/12/11 06:34:24;;;;;;;31.40;11.63;;;;;;;1.85;92.39;99733.31;4435606;32;20475;-70
2021/12/11 06:36:51;;;;;;;29.30;12.75;;;;;;;1.87;92.29;99736.81;4435497;32;20165;-70
2021/12/11 06:39:23;;;;;;;27.37;11.95;;;;;;;1.83;92.13;99739.34;4435315;31;20491;-71
2021/12/11 06:41:53;;;;;;;29.67;12.27;;;;;;;1.94;92.00;99740.34;4435438;32;20485;-70
2021/12/11 06:44:27;;;;;;;28.80;10.73;;;;;;;1.84;92.57;99741.97;4435364;32;20562;-70
2021/12/11 06:46:57;;;;;;;31.85;11.75;;;;;;;1.91;91.50;99748.13;4435203;32;20593;-71
2021/12/11 06:49:31;;;;;;;20.88;10.95;;;;;;;1.86;91.61;99749.78;4435815;32;20161;-71
2021/12/11 06:52:00;;;;;;;26.42;12.02;;;;;;;1.74;91.68;99758.28;4435330;32;20077;-70
2021/12/11 06:54:27;;;;;;;22.60;11.12;;;;;;;1.59;92.74;99777.12;4435415;31;20460;-70
2021/12/11 06:56:54;;;;;;;24.67;10.68;;;;;;;1.63;92.68;99781.50;4435201;32;20434;-70
2021/12/11 06:59:22;;;;;;;27.55;11.32;;;;;;;1.68;92.16;99790.22;4435244;32;20113;-70
2021/12/11 07:01:51;;;;;;;22.90;11.12;;;;;;;1.72;92.11;99791.16;4435115;32;20515;-70
2021/12/11 07:04:18;;;;;;;27.80;11.75;;;;;;;1.81;91.97;99796.47;4435202;31;20167;-70
2021/12/11 07:06:48;;;;;;;25.42;12.25;;;;;;;1.91;91.22;99811.34;4435067;32;20086;-70
2021/12/11 07:09:17;;;;;;;22.62;11.00;;;;;;;1.78;92.04;99817.22;4435080;32;20086;-70
2021/12/11 07:11:45;;;;;;;21.73;11.50;;;;;;;1.78;91.53;99829.34;4435348;31;20117;-71
2021/12/11 07:14:15;;;;;;;21.65;9.85;;;;;;;1.85;91.73;99826.84;4435050;32;20085;-70
2021/12/11 07:16:43;;;;;;;22.77;10.20;;;;;;;1.89;91.19;99839.00;4435192;32;20105;-70
2021/12/11 07:19:12;;;;;;;22.77;11.10;;;;;;;1.92;91.24;99839.06;4435045;32;20443;-70
2021/12/11 07:21:40;;;;;;;26.58;11.15;;;;;;;1.96;91.09;99852.97;4436383;31;20500;-70
2021/12/11 07:24:13;;;;;;;29.48;11.73;;;;;;;1.86;91.49;99851.97;4437558;32;20403;-70
2021/12/11 07:26:41;;;;;;;27.17;12.30;;;;;;;1.96;91.15;99854.69;4437151;32;20120;-70
2021/12/11 07:29:13;;;;;;;30.25;12.18;;;;;;;2.00;91.36;99859.09;4427362;32;20181;-70
2021/12/11 07:31:44;;;;;;;29.52;13.30;;;;;;;1.97;91.38;99861.63;4427080;32;20149;-70
2021/12/11 07:34:12;;;;;;;29.87;13.57;;;;;;;2.00;91.32;99869.47;4437476;32;20440;-70
2021/12/11 07:36:40;;;;;;;30.65;14.85;;;;;;;2.13;90.37;99872.28;4437355;31;20140;-70
2021/12/11 07:39:10;;;;;;;32.00;14.27;;;;;;;2.12;90.50;99883.53;4437332;31;20096;-70
2021/12/11 07:41:38;;;;;;;28.77;14.32;;;;;;;2.21;90.63;99880.16;4437402;32;20081;-70
2021/12/11 07:44:05;;;;;;;27.33;12.98;;;;;;;2.24;90.43;99877.63;4437236;32;20115;-70
2021/12/11 07:46:34;;;;;;;24.95;12.65;;;;;;;2.23;90.12;99880.22;4436674;32;20152;-70
2021/12/11 07:49:04;;;;;;;33.75;14.45;;;;;;;2.23;89.96;99868.09;4427108;32;20409;-70
2021/12/11 07:51:35;;;;;;;26.87;13.00;;;;;;;2.23;89.82;99870.69;4421913;32;20602;-70
2021/12/11 07:54:03;;;;;;;29.73;12.63;;;;;;;2.20;89.77;99872.37;4421653;32;20163;-70
2021/12/11 07:56:30;;;;;;;23.70;10.48;;;;;;;2.28;89.44;99863.81;4421532;32;20136;-70
2021/12/11 07:59:00;;;;;;;23.48;10.23;;;;;;;2.22;89.42;99863.72;4421645;32;20459;-70
2021/12/11 08:01:28;;;;;;;21.75;9.95;;;;;;;2.12;89.37;99872.22;4423105;32;20484;-70
2021/12/11 08:04:00;;;;;;;28.33;10.73;;;;;;;1.99;89.91;99870.34;4427889;32;20169;-70
2021/12/11 08:06:28;;;;;;;21.55;10.88;;;;;;;2.02;90.00;99866.06;4436913;32;20089;-70
2021/12/11 08:08:56;;;;;;;21.25;10.57;;;;;;;2.08;89.64;99873.03;4436524;32;20160;-70
2021/12/11 08:11:28;;;;;;;21.58;10.60;;;;;;;2.23;89.17;99875.88;4437566;31;20372;-70
2021/12/11 08:13:57;;;;;;;19.77;9.73;;;;;;;2.25;88.64;99871.56;4436961;32;20132;-70
2021/12/11 08:16:35;;;;;;;23.77;10.07;;;;;;;2.29;88.42;99875.06;4436773;32;20177;-70
2021/12/11 08:19:04;;;;;;;21.30;9.40;;;;;;;2.28;88.45;99876.81;4436756;32;20531;-70
2021/12/11 08:21:31;;;;;;;17.35;9.50;;;;;;;2.31;87.93;99878.56;4436979;32;20108;-70
2021/12/11 08:24:04;;;;;;;18.65;9.00;;;;;;;2.31;88.04;99875.97;4436686;32;20080;-70
2021/12/11 08:26:34;;;;;;;20.77;7.72;;;;;;;2.36;86.74;99887.28;4436915;32;20116;-70
2021/12/11 08:29:09;;;;;;;15.45;7.95;;;;;;;2.35;87.35;99888.16;4436914;32;20108;-70
2021/12/11 08:31:40;;;;;;;21.12;9.07;;;;;;;2.43;86.91;99906.44;4436664;32;20077;-70
2021/12/11 08:34:07;;;;;;;17.85;7.50;;;;;;;2.46;86.60;99899.56;4436330;31;20100;-70
2021/12/11 08:36:35;;;;;;;15.43;7.20;;;;;;;2.50;85.44;99892.69;4436918;31;20093;-70
2021/12/11 08:39:06;;;;;;;14.07;7.82;;;;;;;2.39;86.36;99892.53;4436806;31;20113;-70
2021/12/11 08:41:34;;;;;;;15.70;7.35;;;;;;;2.49;86.12;99894.41;4436864;32;20526;-70
2021/12/11 08:44:09;;;;;;;14.07;7.32;;;;;;;2.46;85.53;99896.09;4436729;32;20120;-70
2021/12/11 08:46:41;;;;;;;16.42;6.53;;;;;;;2.50;85.03;99901.34;4436662;32;20153;-70
2021/12/11 08:49:14;;;;;;;14.73;5.87;;;;;;;2.60;86.10;99902.34;4436716;32;20376;-70
2021/12/11 08:51:56;;;;;;;10.88;5.68;;;;;;;2.49;83.83;99896.13;4435238;32;20105;-69
2021/12/11 08:54:25;;;;;;;13.82;6.57;;;;;;;2.37;85.99;99900.34;4428416;32;20084;-70
2021/12/11 08:56:54;;;;;;;13.32;6.80;;;;;;;2.45;85.38;99908.22;4436812;32;20097;-70
2021/12/11 08:59:24;;;;;;;12.07;6.05;;;;;;;2.48;85.29;99912.59;4431895;32;20128;-70
2021/12/11 09:01:59;;;;;;;12.68;6.82;;;;;;;2.41;84.96;99914.25;4428764;32;20112;-70
2021/12/11 09:04:26;;;;;;;11.23;5.37;;;;;;;2.36;85.28;99915.91;4429736;32;20111;-70
2021/12/11 09:06:58;;;;;;;15.15;5.45;;;;;;;2.52;83.88;99915.25;4432163;31;20101;-69
2021/12/11 09:09:33;;;;;;;8.80;4.97;;;;;;;2.52;82.99;99930.00;4433425;32;20124;-70
2021/12/11 09:12:31;;;;;;;6.87;4.22;;;;;;;2.45;84.13;99930.75;4436703;32;20142;-70
2021/12/11 09:15:10;;;;;;;7.87;4.57;;;;;;;2.46;83.97;99935.09;4436720;32;20494;-69
2021/12/11 09:17:44;;;;;;;7.53;4.50;;;;;;;2.40;83.93;99941.06;4437158;32;20097;-69
2021/12/11 09:20:22;;;;;;;9.65;4.47;;;;;;;2.53;84.04;99947.34;4437390;32;20471;-70
2021/12/11 09:22:52;;;;;;;10.23;4.37;;;;;;;2.74;83.56;99947.59;4437024;32;20156;-70
2021/12/11 09:25:28;;;;;;;8.65;4.80;;;;;;;2.59;83.19;99960.44;4437211;32;20097;-70
2021/12/11 09:28:31;;;;;;;8.68;4.72;;;;;;;2.78;81.84;99958.94;4433928;32;20467;-70
2021/12/11 09:31:07;;;;;;;8.70;4.90;;;;;;;2.56;83.14;99957.78;4433545;32;20441;-70
2021/12/11 09:33:39;;;;;;;8.57;4.97;;;;;;;2.58;84.20;99956.97;4436248;32;20069;-70
2021/12/11 09:36:14;;;;;;;9.07;5.10;;;;;;;2.65;84.51;99968.31;4436169;32;20110;-70
2021/12/11 09:38:46;;;;;;;8.98;4.43;;;;;;;2.87;83.22;99959.94;4435969;32;20144;-70
2021/12/11 09:41:24;;;;;;;11.40;5.40;;;;;;;2.85;81.94;99966.81;4436116;32;20104;-70
2021/12/11 09:43:59;;;;;;;8.02;4.62;;;;;;;2.99;81.55;99963.53;4435449;32;20153;-70
2021/12/11 09:46:37;;;;;;;7.85;5.12;;;;;;;2.92;81.86;99964.31;4432942;32;20089;-70
2021/12/11 09:49:09;;;;;;;11.15;5.87;;;;;;;3.00;82.10;99968.72;4435334;32;20539;-70
2021/12/11 09:51:41;;;;;;;8.20;4.35;;;;;;;3.12;81.97;99966.28;4435793;32;20108;-70
2021/12/11 09:54:14;;;;;;;8.65;4.55;;;;;;;2.93;82.76;99955.63;4436171;32;20084;-70
2021/12/11 09:56:49;;;;;;;8.77;5.00;;;;;;;2.88;82.62;99959.06;4435866;32;20148;-70
2021/12/11 09:59:20;;;;;;;10.43;5.40;;;;;;;3.15;82.13;99962.84;4435864;32;20411;-70
2021/12/11 10:01:52;;;;;;;11.32;4.45;;;;;;;3.09;81.84;99953.25;4435785;32;20191;-70
2021/12/11 10:04:37;;;;;;;8.85;5.07;;;;;;;3.05;81.68;99943.66;4435975;32;20103;-70
2021/12/11 10:09:44;;;;;;;12.48;6.62;;;;;;;3.06;81.42;99944.53;4436015;32;20093;-70
2021/12/11 10:12:17;;;;;;;14.65;6.55;;;;;;;3.00;82.91;99939.25;4435710;32;20172;-70
2021/12/11 10:15:11;;;;;;;10.57;5.40;;;;;;;3.01;82.60;99936.66;4435589;32;20148;-70
2021/12/11 10:17:46;;;;;;;8.70;5.12;;;;;;;2.97;82.45;99939.19;4435394;31;20148;-69
2021/12/11 10:20:31;;;;;;;6.85;4.28;;;;;;;3.00;81.81;99940.09;4435575;32;20100;-70
2021/12/11 10:23:01;;;;;;;6.68;4.20;;;;;;;2.98;81.62;99946.19;4435543;32;20557;-70
2021/12/11 10:25:32;;;;;;;6.87;4.45;;;;;;;3.09;nan;99944.56;4435629;32;20069;-70
2021/12/11 10:28:04;;;;;;;6.97;4.35;;;;;;;3.01;80.91;99946.22;4431029;32;20093;-70
2021/12/11 10:30:36;;;;;;;7.87;4.40;;;;;;;2.96;81.76;99953.06;4419971;32;20081;-70
2021/12/11 10:33:05;;;;;;;9.40;4.47;;;;;;;2.95;81.16;99951.34;4420039;32;20493;-70
2021/12/11 10:35:39;;;;;;;6.90;4.55;;;;;;;2.97;81.96;99960.91;4419899;32;20508;-70
2021/12/11 10:38:07;;;;;;;8.90;4.75;;;;;;;2.84;82.40;99962.47;4405118;32;20094;-72
2021/12/11 10:40:39;;;;;;;7.35;4.55;;;;;;;2.95;81.86;99956.53;4419980;32;20125;-71
2021/12/11 10:43:17;;;;;;;6.68;3.90;;;;;;;2.85;81.57;99968.56;4420340;31;20098;-70
2021/12/11 10:45:46;;;;;;;5.47;3.62;;;;;;;2.75;81.37;99971.91;4419800;32;20173;-70
2021/12/11 10:48:17;;;;;;;6.75;4.32;;;;;;;2.78;82.89;99970.22;4419748;32;20483;-70
2021/12/11 10:51:18;;;;;;;8.25;5.03;;;;;;;2.89;82.56;99962.53;4419874;32;20117;-70
2021/12/11 10:53:50;;;;;;;7.20;4.43;;;;;;;2.98;81.73;99962.66;4414002;32;20127;-70
2021/12/11 10:56:20;;;;;;;7.93;4.72;;;;;;;2.95;81.94;99956.53;4421601;32;20499;-70
2021/12/11 10:58:52;;;;;;;6.35;4.10;;;;;;;2.91;81.98;99949.56;4422270;32;20082;-70
2021/12/11 11:01:38;;;;;;;8.50;4.82;;;;;;;3.00;82.60;99950.50;4421824;32;20128;-70
2021/12/11 11:04:21;;;;;;;13.85;5.60;;;;;;;3.20;81.80;99952.50;4421630;32;20131;-70
2021/12/11 11:06:48;;;;;;;9.30;4.97;;;;;;;3.21;81.71;99941.22;4421907;32;20516;-70
2021/12/11 11:09:19;;;;;;;10.40;4.62;;;;;;;3.25;80.50;99927.34;4422067;32;20468;-70
2021/12/11 11:11:49;;;;;;;9.70;5.80;;;;;;;3.05;81.85;99938.44;4422100;32;20089;-70
2021/12/11 11:14:17;;;;;;;8.63;5.70;;;;;;;3.06;82.21;99934.13;4422095;32;20077;-70
2021/12/11 11:16:51;;;;;;;10.77;5.82;;;;;;;3.32;81.75;99947.41;4422158;32;20116;-70
2021/12/11 11:19:21;;;;;;;10.45;6.18;;;;;;;3.20;81.87;99942.94;4428181;31;20170;-70
2021/12/11 11:21:56;;;;;;;12.18;7.07;;;;;;;3.13;81.98;99941.13;4433524;32;20109;-70
2021/12/11 11:24:38;;;;;;;14.07;6.35;;;;;;;3.09;82.62;99949.75;4437272;32;20097;-70
2021/12/11 11:27:07;;;;;;;13.77;6.25;;;;;;;3.18;81.79;99946.38;4437394;32;20081;-70
2021/12/11 11:29:37;;;;;;;9.15;5.45;;;;;;;3.25;81.74;99942.97;4437153;31;20113;-70
2021/12/11 11:32:09;;;;;;;8.88;5.35;;;;;;;3.11;81.70;99948.94;4437391;32;20448;-70
2021/12/11 11:34:40;;;;;;;9.57;5.43;;;;;;;3.24;81.97;99957.75;4437337;32;20109;-70
2021/12/11 11:37:18;;;;;;;8.90;5.43;;;;;;;3.22;80.79;99946.44;4431128;32;20089;-70
2021/12/11 11:39:48;;;;;;;13.85;6.85;;;;;;;3.04;82.67;99938.41;4421811;32;20094;-70
2021/12/11 11:42:19;;;;;;;10.45;6.70;;;;;;;3.05;83.10;99942.78;4421789;32;20094;-70
2021/12/11 11:44:48;;;;;;;13.93;7.32;;;;;;;3.19;82.41;99956.81;4421525;32;20137;-70
2021/12/11 11:47:18;;;;;;;11.50;6.90;;;;;;;3.11;82.52;99961.09;4421776;32;20073;-70
2021/12/11 11:49:45;;;;;;;14.20;8.45;;;;;;;3.14;82.60;99970.63;4421597;32;20177;-70
2021/12/11 11:52:17;;;;;;;13.45;7.30;;;;;;;3.16;83.24;99972.41;4421505;32;20117;-70
2021/12/11 11:54:48;;;;;;;15.32;7.87;;;;;;;3.18;82.60;99975.91;4419894;32;20146;-70
2021/12/11 11:57:22;;;;;;;11.10;6.55;;;;;;;3.18;82.26;99977.63;4421048;32;20107;-70
2021/12/11 11:59:53;;;;;;;11.02;6.18;;;;;;;3.05;83.22;99981.81;4421484;32;20429;-70
2021/12/11 12:02:23;;;;;;;12.90;6.80;;;;;;;2.97;82.79;99976.53;4421321;32;20522;-70
2021/12/11 12:04:53;;;;;;;12.90;6.90;;;;;;;3.05;83.61;99976.63;4421536;32;20161;-70
2021/12/11 12:07:26;;;;;;;11.88;6.75;;;;;;;3.01;83.12;99987.84;4421195;32;20073;-70
2021/12/11 12:09:58;;;;;;;15.05;7.07;;;;;;;3.02;82.87;99987.00;4421278;32;20170;-70
2021/12/11 12:12:26;;;;;;;13.90;7.40;;;;;;;3.20;82.83;99992.41;4420263;32;20134;-70